Observations for GUIDONIA IT-AFB, Italy (LIRG)

LIRG 200655Z VRB01KT 9999 BKN040 05/04 Q1021
LIRG 200655Z VRB01KT 9999 BKN040 05/04 Q1021 RMK BKN MON NE CLD CIME VIS MIN 9999 BLU
LIRG 200555Z 03003KT 360V090 9999 BKN050 03/03 Q1020
LIRG 200555Z 03003KT 360V090 9999 BKN050 03/03 Q1020 RMK BKN MON NE LIB VIS MIN9999 BLU
LIRG 191755Z 31009KT 9999 FEW040 13/04 Q1018
LIRG 191755Z 31009KT 9999 FEW040 13/04 Q1018 RMK SCT SCT060 MON NE CLD CIME NC VIS MIN 9999 BLU
LIRG 191655Z 33007KT 9999 SCT030 14/04 Q1016
LIRG 191655Z 33007KT 9999 SCT030 14/04 Q1016 RMK SCT MON NE CLD CIME NC VIS MIN9999 BLU
LIRG 191555Z 29007KT 9999 SCT030 SCT040 15/04 Q1016 
LIRG 191555Z 29007KT 9999 SCT030 SCT040 15/04 Q1016 RMK BKN MON NE CLD CIME NC VIS MIN 9999 BLU
LIRG 191455Z 30006KT 9999 FEW030 SCT040 15/04 Q1016 
LIRG 191455Z 30006KT 9999 FEW030 SCT040 15/04 Q1016 RMK BKN MON NE CLD CIME NC VIS MIN 9999 BLU
LIRG 191355Z 26009KT 9999 SCT030 SCT040 15/04 Q1016 
LIRG 191355Z 26009KT 9999 SCT030 SCT040 15/04 Q1016 RMK BKN MON NE CLD CIME NC VIS MIN 9999 BLU
LIRG 191255Z 23012KT 9999 SCT030 15/03 Q1016
LIRG 191255Z 23012KT 9999 SCT030 15/03 Q1016 RMK BKN SCT060 MON NE CLD CIME NC VIS MIN 9999 BLU
LIRG 191155Z 26005KT 9999 SCT030 15/03 Q1017
LIRG 191155Z 26005KT 9999 SCT030 15/03 Q1017 RMK BKN MON NE CLD CIME NC VIS MIN9999 BLU
LIRG 191055Z 29002KT 9999 BKN030 15/05 Q1017
LIRG 191055Z 29002KT 9999 BKN030 15/05 Q1017 RMK BKN MON NE CLD CIME NC VIS MIN9999 BLU
LIRG 190955Z 13007KT 9999 SCT030 16/05 Q1017
LIRG 190955Z 13007KT 9999 SCT030 16/05 Q1017 RMK BKN SCT060 MON NE CLD CIME VARRAPID VIS MIN 9999 BLU
LIRG 190855Z 24002KT 9999 SCT030 12/04 Q1016
LIRG 190855Z 24002KT 9999 SCT030 12/04 Q1016 RMK SCT MON NE LIB NC VIS MIN 9999BLU
LIRG 190755Z 14003KT 9999 BKN030 11/05 Q1016
LIRG 190755Z 14003KT 9999 BKN030 11/05 Q1016 RMK BKN MON NE LIB NC VIS MIN 9999BLU
LIRG 190655Z 02002KT 9999 BKN030 07/04 Q1016
LIRG 190655Z 02002KT 9999 BKN030 07/04 Q1016 RMK BKN MON NE LIB NC VIS MIN 9999BLU